Time;durP1;ratioP1;P1;durP2;ratioP2;P2;SDS_P1;SDS_P2;PMS_P1;PMS_P2;Temp;Humidity;BMP_temperature;BMP_pressure;BME280_temperature;BME280_humidity;BME280_pressure;Samples;Min_cycle;Max_cycle;Signal;HPM_P1;HPM_P2
2021/01/25 00:01:51;;;;;;;3.67;3.38;;;3.30;74.00;;;2.38;58.01;93147.09;5065259;28;20242;-84
2021/01/25 00:04:18;;;;;;;4.30;3.28;;;3.30;74.10;;;2.36;58.17;93141.31;5032395;28;20700;-83
2021/01/25 00:06:45;;;;;;;4.50;3.50;;;3.40;74.10;;;2.34;58.11;93144.06;5049473;28;20188;-84
2021/01/25 00:09:11;;;;;;;4.82;3.58;;;3.30;74.00;;;2.38;58.23;93153.06;5032573;28;20211;-84
2021/01/25 00:11:39;;;;;;;3.95;3.55;;;3.40;74.20;;;2.32;57.92;93140.88;5049605;28;20215;-83
2021/01/25 00:14:06;;;;;;;4.00;3.50;;;3.40;74.20;;;2.38;58.03;93141.91;5032199;28;20298;-83
2021/01/25 00:16:33;;;;;;;5.70;3.45;;;3.40;74.20;;;2.39;58.16;93148.69;5032920;28;20224;-83
2021/01/25 00:19:00;;;;;;;4.47;3.13;;;3.40;74.20;;;2.39;58.18;93143.50;5030632;28;20192;-84
2021/01/25 00:21:27;;;;;;;4.80;3.70;;;3.40;74.20;;;2.39;58.34;93153.88;5032165;28;20847;-83
2021/01/25 00:23:54;;;;;;;4.40;3.70;;;3.40;74.20;;;2.35;58.28;93147.47;5049156;28;20249;-83
2021/01/25 00:26:21;;;;;;;3.50;3.17;;;3.40;74.30;;;2.37;58.13;93148.88;5032091;28;20230;-83
2021/01/25 00:28:48;;;;;;;3.95;3.42;;;3.40;74.30;;;2.33;58.35;93145.06;5047337;28;20291;-83
2021/01/25 00:31:15;;;;;;;4.22;3.50;;;3.40;74.30;;;2.36;58.88;93151.66;5032556;28;20215;-85
2021/01/25 00:33:42;;;;;;;4.68;3.50;;;3.40;74.40;;;2.34;58.39;93153.63;5032799;28;20341;-83
2021/01/25 00:36:10;;;;;;;3.53;3.22;;;3.40;74.40;;;2.34;58.43;93159.59;5050596;28;20298;-84
2021/01/25 00:38:36;;;;;;;3.55;3.25;;;3.40;74.30;;;2.35;58.52;93161.19;5034420;28;20223;-83
2021/01/25 00:41:03;;;;;;;3.78;3.38;;;3.30;74.30;;;2.36;58.37;93162.00;5052150;28;20238;-83
2021/01/25 00:43:30;;;;;;;4.00;3.30;;;3.30;74.30;;;2.33;58.63;93164.94;5038449;28;20188;-83
2021/01/25 00:45:56;;;;;;;3.92;3.30;;;3.40;74.40;;;2.30;58.54;93157.56;5054353;28;20234;-84
2021/01/25 00:48:23;;;;;;;3.97;3.58;;;3.40;74.40;;;2.33;58.53;93173.53;5037859;28;20208;-83
2021/01/25 00:50:50;;;;;;;3.78;3.38;;;3.50;74.50;;;2.36;58.33;93167.97;5038651;28;20231;-83
2021/01/25 00:53:17;;;;;;;3.80;3.33;;;3.40;74.40;;;2.37;58.22;93168.78;5054676;28;20196;-84
2021/01/25 00:55:44;;;;;;;3.97;3.45;;;3.30;74.30;;;2.33;58.35;93163.19;5054995;28;20246;-84
2021/01/25 00:58:11;;;;;;;4.38;3.40;;;3.40;74.40;;;2.39;58.29;93179.75;5038423;28;20192;-84
2021/01/25 01:00:38;;;;;;;3.90;3.50;;;3.40;74.30;;;2.36;58.49;93167.19;5038425;28;20211;-84
2021/01/25 01:03:05;;;;;;;3.92;2.97;;;3.40;74.30;;;2.36;58.28;93187.88;5053884;28;20291;-84
2021/01/25 01:05:32;;;;;;;4.03;3.58;;;3.40;74.30;;;2.35;58.35;93173.34;5037306;28;20239;-83
2021/01/25 01:07:59;;;;;;;3.97;3.08;;;3.40;74.30;;;2.37;58.43;93179.13;5038282;28;20584;-83
2021/01/25 01:10:26;;;;;;;3.53;3.20;;;3.40;74.30;;;2.39;58.27;93183.13;5054851;28;20220;-84
2021/01/25 01:12:52;;;;;;;4.65;3.53;;;3.40;74.30;;;2.41;58.10;93182.94;5037714;28;20208;-84
2021/01/25 01:15:19;;;;;;;4.55;3.58;;;3.40;74.30;;;2.41;58.27;93180.38;5054805;28;20302;-83
2021/01/25 01:17:46;;;;;;;3.75;3.38;;;3.40;74.30;;;2.42;57.97;93181.97;5037636;28;20208;-83
2021/01/25 01:20:13;;;;;;;4.45;3.50;;;3.40;74.30;;;2.39;57.96;93179.75;5037310;28;20215;-84
2021/01/25 01:22:44;;;;;;;3.95;3.42;;;3.40;74.30;;;2.40;58.15;93182.16;5067429;28;20692;-84
2021/01/25 01:25:11;;;;;;;3.75;3.28;;;3.40;74.20;;;2.42;58.19;93183.75;5052601;28;20306;-84
2021/01/25 01:27:38;;;;;;;4.93;3.70;;;3.40;74.30;;;2.40;58.14;93178.75;5052544;28;20192;-84
2021/01/25 01:30:08;;;;;;;4.78;3.60;;;3.40;74.30;;;2.42;58.13;93181.16;5052310;28;20262;-82
2021/01/25 01:32:36;;;;;;;3.97;3.60;;;3.40;74.20;;;2.39;58.33;93180.56;5019658;28;20192;-83
2021/01/25 01:35:05;;;;;;;3.97;3.40;;;3.40;74.30;;;2.39;58.00;93188.31;5052697;28;20228;-83
2021/01/25 01:37:32;;;;;;;4.20;3.33;;;3.40;74.20;;;2.38;57.92;93186.72;5036124;28;20309;-82
2021/01/25 01:40:00;;;;;;;4.32;3.30;;;3.40;74.30;;;2.29;58.21;93174.88;5035876;28;20603;-83
2021/01/25 01:42:27;;;;;;;3.95;3.53;;;3.40;74.30;;;2.34;58.33;93182.09;5035794;28;20604;-84
2021/01/25 01:44:54;;;;;;;3.55;3.00;;;3.40;74.30;;;2.29;58.04;93177.44;5018213;28;20220;-83
2021/01/25 01:47:22;;;;;;;3.88;3.35;;;3.30;74.20;;;2.32;57.93;93182.28;5051469;28;20207;-84
2021/01/25 01:49:52;;;;;;;3.88;3.47;;;3.40;74.40;;;2.29;58.47;93182.63;5035263;28;20303;-83
2021/01/25 01:52:19;;;;;;;3.90;3.42;;;3.30;74.30;;;2.30;58.06;93183.44;5034395;28;20258;-84
2021/01/25 01:54:47;;;;;;;3.85;3.40;;;3.30;74.30;;;2.26;58.81;93177.84;5034807;28;20246;-83
2021/01/25 01:57:15;;;;;;;5.97;3.50;;;3.30;74.30;;;2.21;58.63;93170.63;5049852;28;20204;-84
2021/01/25 01:59:42;;;;;;;3.72;3.33;;;3.30;74.40;;;2.24;58.54;93172.03;5034971;28;20220;-84
2021/01/25 02:02:09;;;;;;;4.22;3.55;;;3.30;74.50;;;2.23;58.83;93166.06;5051719;28;20572;-83
2021/01/25 02:04:37;;;;;;;4.85;3.90;;;3.30;74.60;;;2.21;58.55;93164.63;5034714;28;20216;-83
2021/01/25 02:07:07;;;;;;;4.32;3.40;;;3.30;74.60;;;2.20;58.71;93161.25;5051068;28;20561;-84
2021/01/25 02:09:40;;;;;;;4.25;3.33;;;3.30;74.60;;;2.24;58.71;93166.88;5051620;28;20257;-83
2021/01/25 02:12:09;;;;;;;3.63;3.33;;;3.30;74.60;;;2.26;58.49;93167.50;5035415;28;20292;-83
2021/01/25 02:14:38;;;;;;;3.70;3.17;;;3.30;74.60;;;2.22;58.32;93167.06;5018277;28;20270;-84
2021/01/25 02:17:06;;;;;;;3.50;3.20;;;3.30;74.50;;;2.23;58.49;93166.06;5040258;28;20195;-84
2021/01/25 02:20:04;;;;;;;4.35;3.35;;;3.30;74.50;;;2.19;58.31;93156.28;5034466;28;20188;-84
2021/01/25 02:22:38;;;;;;;4.72;3.40;;;3.30;74.60;;;2.24;58.85;93172.81;5041038;28;20196;-84
2021/01/25 02:25:39;;;;;;;3.97;3.40;;;3.30;74.60;;;2.19;58.70;93159.66;5067105;28;20273;-83
2021/01/25 02:28:06;;;;;;;5.57;4.00;;;3.30;74.70;;;2.23;58.48;93173.84;5064180;28;20192;-84
2021/01/25 02:30:35;;;;;;;4.88;4.13;;;3.30;74.70;;;2.23;58.99;93175.59;5028843;28;20227;-84
2021/01/25 02:33:02;;;;;;;5.35;3.80;;;3.20;74.70;;;2.22;59.14;93163.66;5017841;28;20249;-84
2021/01/25 02:35:31;;;;;;;4.60;3.67;;;3.20;74.80;;;2.24;58.84;93175.41;5051099;28;20234;-84
2021/01/25 02:37:58;;;;;;;5.40;3.90;;;3.20;74.80;;;2.27;58.99;93178.63;5017856;28;20196;-83
2021/01/25 02:40:26;;;;;;;4.95;4.05;;;3.30;74.80;;;2.24;59.07;93166.88;5066622;28;20299;-84
2021/01/25 02:42:55;;;;;;;4.65;4.20;;;3.20;74.80;;;2.21;59.11;93162.03;5050473;28;20690;-84
2021/01/25 02:45:23;;;;;;;5.05;4.55;;;3.40;75.00;;;2.25;59.38;93176.22;5050615;28;20251;-83
2021/01/25 02:47:51;;;;;;;5.25;4.32;;;3.30;75.00;;;2.24;59.09;93175.41;5050306;28;20203;-84
2021/01/25 02:50:18;;;;;;;5.93;4.68;;;3.20;75.00;;;2.24;59.67;93179.78;5050679;28;20239;-83
2021/01/25 02:52:45;;;;;;;6.38;4.18;;;3.30;75.10;;;2.24;59.58;93175.41;5051268;28;20215;-84
2021/01/25 02:55:12;;;;;;;4.80;4.30;;;3.30;75.90;;;2.24;59.14;93169.44;5034957;28;20306;-84
2021/01/25 02:57:39;;;;;;;6.22;4.20;;;3.30;75.00;;;2.23;59.37;93167.84;5019642;28;20712;-84
2021/01/25 03:00:11;;;;;;;4.35;3.92;;;3.30;75.10;;;2.29;59.16;93176.66;5019751;28;20216;-83
2021/01/25 03:02:39;;;;;;;6.43;4.53;;;3.30;75.00;;;2.21;59.36;93157.69;5052889;28;20658;-83
2021/01/25 03:05:06;;;;;;;4.72;3.58;;;3.30;75.10;;;2.27;59.49;93165.69;5035569;28;20597;-84
2021/01/25 03:07:33;;;;;;;5.07;4.10;;;3.30;75.00;;;2.26;59.49;93172.66;5035488;28;20200;-84
2021/01/25 03:10:04;;;;;;;4.63;4.00;;;3.30;75.00;;;2.27;59.37;93176.03;5052014;28;20216;-83
2021/01/25 03:12:32;;;;;;;5.30;4.30;;;3.30;75.00;;;2.24;59.17;93172.81;5052104;28;20199;-84
2021/01/25 03:14:58;;;;;;;4.50;3.90;;;3.30;75.00;;;2.19;59.47;93169.22;5052480;28;20303;-84
2021/01/25 03:17:25;;;;;;;6.00;4.18;;;3.30;75.00;;;2.15;59.39;93167.94;5052490;28;20196;-83
2021/01/25 03:19:52;;;;;;;4.97;4.40;;;3.30;75.00;;;2.14;59.58;93158.63;5018925;28;20725;-83
2021/01/25 03:22:19;;;;;;;4.85;4.28;;;3.30;75.00;;;2.18;59.50;93170.19;5051616;28;20299;-84
2021/01/25 03:24:46;;;;;;;5.55;4.20;;;3.20;75.00;;;2.13;59.50;93164.78;5049213;28;20203;-84
2021/01/25 03:27:13;;;;;;;5.20;4.15;;;3.30;75.00;;;2.17;59.22;93171.16;5018977;28;20598;-83
2021/01/25 03:29:41;;;;;;;6.90;4.30;;;3.20;75.00;;;2.13;59.44;93165.56;5018000;28;20230;-84
2021/01/25 03:32:08;;;;;;;5.28;3.83;;;3.20;75.00;;;2.16;59.09;93161.81;5051330;28;20257;-84
2021/01/25 03:34:34;;;;;;;5.40;4.30;;;3.20;75.80;;;2.14;59.19;93177.50;5045292;28;20228;-84
2021/01/25 03:37:01;;;;;;;4.80;4.20;;;3.20;75.00;;;2.14;59.02;93166.38;5066759;28;20192;-84
2021/01/25 03:39:28;;;;;;;5.53;3.90;;;3.30;75.00;;;2.14;59.17;93171.56;5048148;28;20199;-83
2021/01/25 03:41:55;;;;;;;5.72;4.30;;;3.20;74.90;;;2.10;59.03;93167.72;5050808;28;20623;-84
2021/01/25 03:44:22;;;;;;;5.10;4.45;;;3.10;74.80;;;2.09;59.02;93166.91;5049862;28;20224;-84
2021/01/25 03:46:49;;;;;;;5.05;4.35;;;3.10;74.80;;;1.99;59.22;93161.22;5016832;28;20196;-84
2021/01/25 03:49:17;;;;;;;5.60;4.65;;;3.10;74.80;;;2.06;58.88;93178.44;5048806;28;20271;-84
2021/01/25 03:51:44;;;;;;;5.68;4.53;;;3.10;74.80;;;1.99;59.24;93174.16;5033895;28;20658;-84
2021/01/25 03:54:14;;;;;;;6.55;4.90;;;3.10;74.80;;;2.03;59.08;93185.75;5049884;28;20200;-84
2021/01/25 03:56:41;;;;;;;5.90;4.80;;;3.10;74.90;;;2.03;59.24;93183.16;5064886;28;20221;-83
2021/01/25 03:59:08;;;;;;;4.80;4.30;;;3.00;74.80;;;1.97;58.78;93168.38;5033106;28;20196;-84
2021/01/25 04:01:35;;;;;;;7.05;4.28;;;3.00;74.80;;;2.04;58.82;93179.59;5033552;28;20223;-83
2021/01/25 04:04:03;;;;;;;6.93;4.75;;;3.00;74.80;;;1.99;59.22;93180.13;5049450;28;20254;-85
2021/01/25 04:06:30;;;;;;;6.80;4.57;;;3.00;75.00;;;2.01;59.29;93178.16;5029650;28;20263;-83
2021/01/25 04:09:02;;;;;;;6.38;5.30;;;3.00;74.90;;;1.98;59.14;93178.53;5029183;28;20544;-82
2021/01/25 04:11:29;;;;;;;6.63;4.63;;;3.10;75.00;;;1.89;59.05;93170.09;5045378;28;20220;-81
2021/01/25 04:13:55;;;;;;;5.22;4.55;;;3.00;74.80;;;1.88;59.03;93172.84;5044977;28;20265;-82
2021/01/25 04:16:23;;;;;;;6.13;4.25;;;3.00;74.80;;;1.87;58.84;93177.22;5051456;28;20640;-82
2021/01/25 04:18:51;;;;;;;6.80;4.50;;;2.90;74.60;;;1.83;58.42;93176.00;5051481;28;20228;-83
2021/01/25 04:21:18;;;;;;;7.05;4.57;;;2.90;74.60;;;1.72;59.00;93168.69;5053632;28;20327;-84
2021/01/25 04:23:45;;;;;;;6.15;4.75;;;2.90;74.70;;;1.73;58.62;93167.69;5019946;28;20199;-84
2021/01/25 04:26:12;;;;;;;6.25;4.82;;;2.90;74.70;;;1.70;58.99;93161.09;5051771;28;20228;-82
2021/01/25 04:28:38;;;;;;;6.45;4.88;;;2.80;74.60;;;1.64;58.71;93158.47;5018775;28;20264;-83
2021/01/25 04:31:05;;;;;;;7.57;5.47;;;2.80;74.60;;;1.58;58.90;93160.75;5054291;28;20208;-84
2021/01/25 04:33:32;;;;;;;6.75;5.32;;;2.70;74.60;;;1.57;59.08;93169.50;5034136;28;20318;-83
2021/01/25 04:35:59;;;;;;;6.25;5.03;;;2.70;74.60;;;1.55;59.21;93168.88;5050896;28;20573;-83
2021/01/25 04:38:26;;;;;;;6.63;4.93;;;2.70;74.70;;;1.53;59.33;93176.00;5034652;28;20692;-83
2021/01/25 04:40:53;;;;;;;5.60;4.72;;;2.60;74.70;;;1.54;59.06;93176.84;5036147;28;20223;-83
2021/01/25 04:43:20;;;;;;;7.57;5.80;;;2.70;74.90;;;1.53;59.64;93182.97;5026066;28;20203;-83
2021/01/25 04:45:47;;;;;;;7.07;5.45;;;2.60;75.00;;;1.54;59.58;93184.56;5033128;28;20247;-84
2021/01/25 04:48:15;;;;;;;6.78;5.15;;;2.60;75.00;;;1.57;59.63;93192.75;5068011;28;20745;-83
2021/01/25 04:50:43;;;;;;;7.15;5.20;;;2.60;75.10;;;1.56;59.41;93186.00;5033942;28;20498;-83
2021/01/25 04:53:11;;;;;;;5.90;4.70;;;2.60;75.00;;;1.60;59.65;93189.81;5034004;28;20200;-84
2021/01/25 04:55:39;;;;;;;6.82;4.20;;;2.60;75.00;;;1.63;59.11;93193.03;5061202;28;20247;-84
2021/01/25 04:58:07;;;;;;;5.15;4.35;;;2.60;75.00;;;1.64;59.34;93189.47;5059343;28;20247;-84
2021/01/25 05:00:33;;;;;;;4.70;4.07;;;2.60;75.00;;;1.62;59.10;93184.47;5067434;28;20216;-84
2021/01/25 05:03:00;;;;;;;6.78;4.78;;;2.70;75.80;;;1.59;59.29;93192.59;5053329;28;20238;-83
2021/01/25 05:05:27;;;;;;;7.93;4.95;;;2.70;75.00;;;1.58;59.34;93202.09;5049244;28;20286;-83
2021/01/25 05:07:54;;;;;;;6.72;4.68;;;2.60;75.00;;;1.57;59.15;93199.72;5049553;28;20279;-83
2021/01/25 05:10:22;;;;;;;6.35;4.35;;;2.60;75.00;;;1.55;59.21;93184.41;5049630;28;20220;-83
2021/01/25 05:12:51;;;;;;;16.83;8.65;;;2.60;75.10;;;1.62;59.45;93204.34;5062514;28;20250;-83
2021/01/25 05:15:33;;;;;;;23.88;11.77;;;2.60;75.10;;;1.67;59.31;93205.44;5031746;28;20212;-84
2021/01/25 05:18:07;;;;;;;16.10;8.15;;;2.60;75.20;;;1.68;59.09;93207.00;5032545;28;20224;-83
2021/01/25 05:20:34;;;;;;;16.13;8.38;;;2.70;75.20;;;1.71;58.87;93211.00;5031819;28;20216;-82
2021/01/25 05:23:13;;;;;;;12.95;7.22;;;2.70;75.10;;;1.75;58.91;93217.44;5039607;28;20283;-82
2021/01/25 05:25:40;;;;;;;9.45;5.63;;;2.70;75.20;;;1.78;59.21;93224.81;5025104;28;20232;-82
2021/01/25 05:28:19;;;;;;;8.60;5.88;;;2.70;75.10;;;1.76;58.81;93212.09;5021278;28;20230;-83
2021/01/25 05:30:47;;;;;;;6.35;4.30;;;2.70;75.10;;;1.83;58.96;93229.44;5035559;28;20300;-83
2021/01/25 05:33:27;;;;;;;5.53;3.97;;;2.80;75.10;;;1.86;59.01;93229.09;5035811;28;20216;-83
2021/01/25 05:35:55;;;;;;;5.97;4.63;;;2.80;75.10;;;1.81;58.85;93227.06;5052207;28;20231;-83
2021/01/25 05:38:22;;;;;;;5.78;4.30;;;2.80;75.00;;;1.81;58.98;93221.88;5049369;28;20722;-83
2021/01/25 05:40:55;;;;;;;6.32;5.00;;;2.80;75.00;;;1.85;59.25;93235.25;5032441;28;20227;-83
2021/01/25 05:43:31;;;;;;;6.00;4.78;;;2.90;75.00;;;1.83;58.54;93230.28;5034805;28;20300;-84
2021/01/25 05:46:13;;;;;;;6.38;4.53;;;2.90;75.00;;;1.85;58.75;93238.63;5049392;28;20215;-83
2021/01/25 05:48:41;;;;;;;4.35;3.85;;;2.80;74.90;;;1.86;58.71;93237.66;5054058;28;20208;-83
2021/01/25 05:51:18;;;;;;;5.90;4.40;;;2.80;74.90;;;1.87;58.88;93234.09;5047306;28;20220;-83
2021/01/25 05:53:47;;;;;;;7.88;5.53;;;2.80;74.90;;;1.88;58.63;93243.47;5035291;28;20212;-84
2021/01/25 05:56:16;;;;;;;6.95;5.22;;;2.90;74.90;;;1.91;58.50;93244.88;5030166;28;20221;-82
2021/01/25 05:58:43;;;;;;;6.45;4.97;;;2.90;74.90;;;1.89;58.88;93245.06;5033519;28;20227;-83
2021/01/25 06:01:10;;;;;;;7.32;4.60;;;2.90;74.80;;;1.90;58.44;93238.91;5049593;28;20215;-83
2021/01/25 06:03:37;;;;;;;6.00;4.70;;;2.90;74.80;;;1.90;58.54;93251.84;5017117;28;20211;-81
2021/01/25 06:06:12;;;;;;;6.25;4.57;;;2.90;74.80;;;1.89;58.47;93249.41;5048384;28;20230;-83
2021/01/25 06:08:47;;;;;;;6.32;4.80;;;2.90;74.80;;;1.88;58.74;93253.78;5052869;28;20669;-83
2021/01/25 06:11:28;;;;;;;6.70;4.10;;;2.90;74.80;;;1.86;58.48;93242.81;5058279;28;20220;-82
2021/01/25 06:14:10;;;;;;;6.30;4.95;;;2.90;74.70;;;1.82;58.61;93241.59;5035462;28;20295;-83
2021/01/25 06:16:36;;;;;;;6.25;4.72;;;2.90;74.70;;;1.83;58.69;93248.38;5051171;28;20230;-83
2021/01/25 06:19:07;;;;;;;5.00;4.20;;;2.90;74.70;;;1.81;58.84;93250.31;5021120;28;20189;-84
2021/01/25 06:21:40;;;;;;;4.90;4.32;;;2.90;74.70;;;1.76;58.54;93257.81;5033568;28;20217;-84
2021/01/25 06:24:10;;;;;;;5.57;3.88;;;2.80;74.70;;;1.75;58.77;93253.63;5031262;28;20197;-84
2021/01/25 06:26:38;;;;;;;5.40;3.70;;;2.80;74.60;;;1.78;58.73;93261.00;5033760;28;20220;-84
2021/01/25 06:29:08;;;;;;;5.63;4.40;;;2.80;74.60;;;1.72;58.80;93257.38;5040434;28;20662;-83
2021/01/25 06:31:36;;;;;;;6.55;4.35;;;2.80;74.60;;;1.72;58.59;93251.38;5035917;28;20318;-83
2021/01/25 06:34:14;;;;;;;5.35;4.45;;;2.80;74.60;;;1.66;58.75;93252.09;5069521;28;20215;-82
2021/01/25 06:36:42;;;;;;;4.78;3.95;;;2.80;74.60;;;1.70;58.65;93266.28;5019866;28;20258;-82
2021/01/25 06:39:11;;;;;;;4.03;3.50;;;2.80;74.50;;;1.67;58.45;93258.88;5052467;28;20211;-84
2021/01/25 06:41:42;;;;;;;4.30;3.50;;;2.80;74.60;;;1.68;58.32;93268.25;5052917;28;20228;-83
2021/01/25 06:44:11;;;;;;;4.40;4.00;;;2.70;74.40;;;1.65;58.52;93273.75;5053248;28;20238;-84
2021/01/25 06:46:40;;;;;;;5.20;4.00;;;2.80;74.50;;;1.62;58.42;93279.28;5047744;28;20301;-82
2021/01/25 06:49:10;;;;;;;6.47;4.47;;;2.70;74.40;;;1.58;58.30;93276.25;5048953;28;20219;-84
2021/01/25 06:51:42;;;;;;;7.03;4.18;;;2.70;74.40;;;1.51;58.65;93275.34;5043333;28;20232;-82
2021/01/25 06:54:13;;;;;;;5.15;4.30;;;2.60;74.40;;;1.53;58.53;93283.75;5035357;28;20242;-84
2021/01/25 06:57:00;;;;;;;6.07;4.80;;;2.60;74.30;;;1.40;58.14;93271.41;5050684;28;20265;-82
2021/01/25 06:59:32;;;;;;;5.68;4.40;;;2.60;74.40;;;1.41;58.22;93278.19;5051178;28;20188;-83
2021/01/25 07:01:59;;;;;;;6.07;4.30;;;2.50;74.10;;;1.37;58.22;93277.75;5052235;28;20180;-83
2021/01/25 07:04:30;;;;;;;4.68;4.10;;;2.50;74.20;;;1.28;58.13;93271.84;5052224;28;20196;-83
2021/01/25 07:06:58;;;;;;;6.53;4.53;;;2.50;74.20;;;1.25;58.53;93276.56;5033480;28;20685;-82
2021/01/25 07:09:33;;;;;;;5.10;4.35;;;2.40;74.10;;;1.20;58.38;93279.66;5051488;28;20564;-82
2021/01/25 07:12:04;;;;;;;7.68;5.30;;;2.40;74.40;;;1.17;58.72;93285.16;5051120;28;20226;-82
2021/01/25 07:14:32;;;;;;;7.72;5.30;;;2.40;74.30;;;1.13;58.61;93283.91;5033693;28;20293;-82
2021/01/25 07:17:00;;;;;;;6.35;5.20;;;2.30;74.30;;;1.11;58.74;93291.84;5050458;28;20662;-83
2021/01/25 07:19:28;;;;;;;7.00;5.00;;;2.30;75.20;;;1.11;58.81;93293.59;5050365;28;20200;-83
2021/01/25 07:21:55;;;;;;;6.00;4.88;;;2.30;74.60;;;1.22;58.78;93306.13;5064467;28;20303;-83
2021/01/25 07:24:27;;;;;;;7.15;5.07;;;2.20;74.70;;;1.29;59.02;93308.81;5049410;28;20192;-82
2021/01/25 07:27:00;;;;;;;7.10;5.40;;;2.20;74.80;;;1.36;59.08;93321.84;5033291;28;20208;-83
2021/01/25 07:29:28;;;;;;;7.15;5.15;;;2.30;75.00;;;1.37;59.07;93310.53;5048111;28;20242;-82
2021/01/25 07:31:57;;;;;;;4.85;4.35;;;2.30;75.00;;;1.49;58.85;93319.47;5031601;28;20192;-82
2021/01/25 07:34:26;;;;;;;7.03;5.25;;;2.40;75.10;;;1.56;58.87;93319.53;5044657;28;20200;-82
2021/01/25 07:36:54;;;;;;;6.15;4.90;;;2.50;75.10;;;1.64;59.01;93324.66;5048983;28;20282;-83
2021/01/25 07:39:20;;;;;;;8.40;5.55;;;2.50;75.20;;;1.70;58.72;93325.72;5049772;28;20299;-82
2021/01/25 07:41:47;;;;;;;8.52;5.93;;;2.50;75.10;;;1.75;58.71;93320.81;5034457;28;20587;-82
2021/01/25 07:44:15;;;;;;;7.63;5.75;;;2.50;75.10;;;1.80;58.82;93338.41;5051576;28;20443;-83
2021/01/25 07:46:45;;;;;;;7.80;6.15;;;2.60;75.10;;;1.82;58.88;93341.59;5033694;28;20215;-82
2021/01/25 07:49:13;;;;;;;6.28;5.13;;;2.70;75.10;;;1.79;58.96;93329.03;5048476;28;20250;-83
2021/01/25 07:51:41;;;;;;;7.43;5.78;;;2.70;75.10;;;1.84;58.59;93327.50;5034161;28;20207;-83
2021/01/25 07:54:15;;;;;;;10.10;6.50;;;2.80;75.10;;;1.92;58.83;93335.19;5051062;28;20200;-82
2021/01/25 07:56:42;;;;;;;9.68;6.10;;;2.80;75.00;;;1.90;59.24;93334.56;5047180;28;20196;-83
2021/01/25 07:59:17;;;;;;;10.70;6.68;;;2.80;75.00;;;1.95;58.81;93336.59;5034331;28;20630;-82
2021/01/25 08:02:00;;;;;;;7.28;5.95;;;2.90;75.40;;;1.97;58.85;93333.84;5036679;28;20191;-83
2021/01/25 08:04:34;;;;;;;6.93;5.47;;;2.90;75.00;;;2.04;58.78;93332.97;5051485;28;20249;-83
2021/01/25 08:07:01;;;;;;;6.78;5.38;;;2.90;75.80;;;2.14;58.78;93337.88;5034903;28;20297;-83
2021/01/25 08:09:29;;;;;;;7.28;5.95;;;3.00;75.10;;;2.20;58.59;93341.53;5050736;28;20246;-83
2021/01/25 08:11:56;;;;;;;7.60;6.00;;;3.00;75.10;;;2.27;58.88;93337.25;5034074;28;20192;-84
2021/01/25 08:15:00;;;;;;;7.75;5.70;;;3.10;75.20;;;2.37;58.72;93349.91;5051955;28;20615;-82
2021/01/25 08:17:35;;;;;;;8.38;5.75;;;3.10;75.10;;;2.44;58.32;93337.03;5034669;28;20250;-85
2021/01/25 08:20:17;;;;;;;8.35;5.95;;;3.20;75.20;;;2.52;58.56;93344.69;5051360;28;20712;-83
2021/01/25 08:23:19;;;;;;;8.07;6.18;;;3.30;75.20;;;2.61;58.46;93343.59;5051097;28;20244;-83
2021/01/25 08:26:00;;;;;;;8.25;6.40;;;3.30;75.10;;;2.70;58.30;93334.75;5069675;28;20219;-83
2021/01/25 08:28:35;;;;;;;9.52;6.47;;;3.40;75.10;;;2.75;57.86;93334.22;5033866;28;20606;-83
2021/01/25 08:31:13;;;;;;;9.05;7.40;;;3.60;75.10;;;2.78;57.86;93336.41;5032601;28;20256;-83
2021/01/25 08:33:44;;;;;;;9.82;7.03;;;3.50;75.00;;;2.84;57.99;93329.72;5049426;28;20246;-83
2021/01/25 08:36:36;;;;;;;8.65;6.20;;;3.60;75.10;;;2.95;58.14;93333.59;5033727;28;20251;-82
2021/01/25 08:39:15;;;;;;;7.97;6.05;;;3.60;75.00;;;3.02;57.87;93334.47;5047482;28;20222;-84
2021/01/25 08:41:52;;;;;;;7.28;5.78;;;3.70;75.00;;;3.09;57.92;93337.13;5033589;28;20200;-83
2021/01/25 08:44:23;;;;;;;8.60;6.20;;;3.80;75.00;;;3.14;57.69;93335.59;5033639;28;20674;-83
2021/01/25 08:46:51;;;;;;;7.72;5.93;;;3.80;75.00;;;3.25;57.40;93341.25;5064276;28;20208;-83
2021/01/25 08:49:43;;;;;;;8.68;6.03;;;3.90;75.00;;;3.32;57.13;93336.94;5048243;28;20639;-82
2021/01/25 08:52:28;;;;;;;6.63;5.38;;;4.00;74.90;;;3.42;57.73;93340.03;5044859;28;20195;-82
2021/01/25 08:55:11;;;;;;;8.77;6.55;;;4.00;74.70;;;3.48;57.28;93336.69;5085883;28;20222;-82
2021/01/25 08:57:42;;;;;;;9.70;6.60;;;4.10;74.70;;;3.55;57.16;93334.13;5057441;28;20682;-82
2021/01/25 09:00:32;;;;;;;8.73;6.38;;;4.20;74.70;;;3.56;57.09;93329.75;5032797;28;20220;-83
2021/01/25 09:03:04;;;;;;;12.40;7.65;;;4.20;74.50;;;3.59;56.95;93337.97;5019702;28;20199;-83
2021/01/25 09:05:32;;;;;;;12.00;7.60;;;4.30;74.50;;;3.61;57.03;93338.56;5018549;28;20411;-82
2021/01/25 09:08:00;;;;;;;8.65;6.28;;;4.30;74.30;;;3.63;57.12;93346.16;5037307;28;20633;-83
2021/01/25 09:10:27;;;;;;;8.48;6.68;;;4.30;74.30;;;3.62;57.09;93341.97;5037070;28;20230;-83
2021/01/25 09:12:54;;;;;;;7.97;6.00;;;4.40;74.30;;;3.62;56.64;93340.16;5054095;28;20199;-82
2021/01/25 09:15:23;;;;;;;8.80;6.57;;;4.40;74.20;;;3.61;56.30;93348.94;5035947;28;20208;-84
2021/01/25 09:17:50;;;;;;;10.68;6.82;;;4.40;73.90;;;3.50;56.30;93339.91;5020436;28;20199;-83
2021/01/25 09:20:17;;;;;;;9.57;6.65;;;4.50;73.80;;;3.51;56.43;93357.03;5053864;28;20212;-83
2021/01/25 09:22:43;;;;;;;8.88;6.07;;;4.40;73.80;;;3.49;56.24;93342.66;5045353;28;20554;-82
2021/01/25 09:25:12;;;;;;;9.20;6.28;;;4.40;73.60;;;3.48;56.07;93346.25;5059829;28;20216;-82
2021/01/25 09:27:40;;;;;;;7.47;5.97;;;4.40;73.70;;;3.44;55.98;93350.19;5049575;28;20269;-83
2021/01/25 09:30:13;;;;;;;8.30;6.50;;;4.40;73.60;;;3.51;55.99;93366.59;5050656;28;20223;-82
2021/01/25 09:32:40;;;;;;;9.93;5.88;;;4.40;73.60;;;3.49;55.98;93363.41;5051009;28;20192;-82
2021/01/25 09:35:11;;;;;;;9.40;6.88;;;4.40;73.40;;;3.43;55.67;93370.13;5058653;28;20211;-84
2021/01/25 09:37:38;;;;;;;9.13;6.57;;;4.40;73.20;;;3.39;55.72;93366.31;5059928;28;20188;-82
2021/01/25 09:40:07;;;;;;;8.10;6.00;;;4.40;73.30;;;3.36;55.89;93374.47;5051524;28;20227;-83
2021/01/25 09:42:34;;;;;;;19.40;10.77;;;4.30;73.20;;;3.31;56.05;93362.06;5034100;28;20200;-84
2021/01/25 09:45:17;;;;;;;13.20;7.35;;;4.30;73.30;;;3.29;55.99;93366.59;5051450;28;20593;-83
2021/01/25 09:47:44;;;;;;;13.23;7.90;;;4.30;73.20;;;3.22;55.98;93357.19;5052785;28;20609;-84
2021/01/25 09:50:14;;;;;;;11.30;8.23;;;4.30;73.20;;;3.23;56.30;93369.16;5035626;28;20212;-83
2021/01/25 09:52:46;;;;;;;9.27;6.82;;;4.20;73.30;;;3.29;56.28;93363.22;5050709;28;20255;-83
2021/01/25 09:55:16;;;;;;;9.00;6.20;;;4.20;73.50;;;3.34;56.07;93368.66;5050597;28;20220;-83
2021/01/25 09:57:43;;;;;;;7.00;5.72;;;4.20;73.40;;;3.36;56.28;93364.88;5032770;28;20290;-82
2021/01/25 10:00:13;;;;;;;8.13;6.03;;;4.20;73.60;;;3.43;55.80;93364.97;5035530;28;20220;-83
2021/01/25 10:02:41;;;;;;;7.10;5.80;;;4.20;73.50;;;3.46;55.41;93358.59;5064471;28;20650;-83
2021/01/25 10:05:10;;;;;;;7.47;5.78;;;4.20;73.40;;;3.57;55.59;93368.44;5051172;28;20625;-83
2021/01/25 10:07:37;;;;;;;10.88;6.53;;;4.20;73.30;;;3.62;55.68;93367.91;5057029;28;20215;-83
2021/01/25 10:10:14;;;;;;;8.05;5.88;;;4.30;73.30;;;3.72;55.72;93359.78;5043563;28;20220;-82
2021/01/25 10:12:42;;;;;;;7.85;5.80;;;4.30;73.40;;;3.82;55.41;93363.66;5042611;28;20191;-83
2021/01/25 10:15:15;;;;;;;7.40;5.38;;;4.40;73.60;;;3.95;55.70;93364.75;5044320;28;20212;-83
2021/01/25 10:17:42;;;;;;;12.73;7.43;;;4.50;73.50;;;4.02;54.96;93357.81;5033759;28;20676;-83
2021/01/25 10:20:11;;;;;;;8.55;6.35;;;4.50;73.50;;;4.07;54.20;93365.81;5035594;28;20239;-83
2021/01/25 10:22:40;;;;;;;7.95;5.70;;;4.60;73.20;;;4.07;53.79;93362.44;5036867;28;20207;-83
2021/01/25 10:25:10;;;;;;;9.63;5.82;;;4.70;72.70;;;4.11;53.83;93361.06;5051975;28;20270;-83
2021/01/25 10:27:38;;;;;;;7.72;5.45;;;4.70;72.40;;;4.15;54.66;93370.06;5032934;28;20200;-83
2021/01/25 10:30:09;;;;;;;8.63;5.95;;;4.80;72.60;;;4.12;53.65;93358.25;5035471;28;20239;-82
2021/01/25 10:32:36;;;;;;;8.25;5.75;;;4.80;72.30;;;4.15;53.79;93375.25;5053021;28;20192;-83
2021/01/25 10:35:06;;;;;;;7.15;5.30;;;4.80;72.20;;;4.22;54.05;93370.09;5035695;28;20229;-83
2021/01/25 10:37:33;;;;;;;7.50;6.13;;;4.90;72.30;;;4.26;53.99;93366.13;5049703;28;20654;-84
2021/01/25 10:40:00;;;;;;;7.68;5.72;;;4.90;72.30;;;4.34;54.15;93368.56;5051989;28;20222;-83
2021/01/25 10:42:28;;;;;;;7.15;5.45;;;4.90;72.30;;;4.44;54.47;93365.63;5019394;28;20258;-84
2021/01/25 10:44:55;;;;;;;6.38;5.10;;;5.00;72.50;;;4.52;54.76;93357.69;5034341;28;20216;-83